Time;durP1;ratioP1;P1;durP2;ratioP2;P2;SDS_P1;SDS_P2;PMS_P1;PMS_P2;Temp;Humidity;BMP_temperature;BMP_pressure;BME280_temperature;BME280_humidity;BME280_pressure;Samples;Min_cycle;Max_cycle;Signal;HPM_P1;HPM_P2
2021/04/26 00:00:46;;;;;;;5.68;2.28;;;;;;;;;;5054935;28;20452;-81
2021/04/26 00:03:12;;;;;;;2.75;2.15;;;;;;;;;;5037095;28;20025;-81
2021/04/26 00:05:37;;;;;;;2.83;2.53;;;;;;;;;;5040028;28;20031;-80
2021/04/26 00:08:03;;;;;;;3.85;2.10;;;;;;;;;;5034625;28;20444;-82
2021/04/26 00:10:30;;;;;;;3.08;2.10;;;;;;;;;;5035302;28;20433;-80
2021/04/26 00:12:55;;;;;;;4.25;2.72;;;;;;;;;;5034894;28;20469;-82
2021/04/26 00:15:26;;;;;;;4.00;2.33;;;;;;;;;;5034504;28;20052;-80
2021/04/26 00:17:52;;;;;;;6.55;2.25;;;;;;;;;;5034570;28;20095;-82
2021/04/26 00:20:21;;;;;;;3.97;2.88;;;;;;;;;;5040297;28;20508;-80
2021/04/26 00:22:47;;;;;;;3.03;2.50;;;;;;;;;;5053626;28;20024;-80
2021/04/26 00:25:13;;;;;;;3.97;2.33;;;;;;;;;;5053947;28;20049;-81
2021/04/26 00:27:39;;;;;;;2.67;2.47;;;;;;;;;;5054339;28;20048;-81
2021/04/26 00:30:07;;;;;;;3.28;2.38;;;;;;;;;;5036257;28;20029;-81
2021/04/26 00:32:33;;;;;;;3.88;2.40;;;;;;;;;;5036371;28;20543;-82
2021/04/26 00:34:58;;;;;;;3.28;2.53;;;;;;;;;;5054166;28;20021;-81
2021/04/26 00:37:24;;;;;;;2.83;2.15;;;;;;;;;;5036285;28;20021;-80
2021/04/26 00:39:49;;;;;;;3.55;2.58;;;;;;;;;;5016499;28;20022;-82
2021/04/26 00:42:15;;;;;;;2.45;2.25;;;;;;;;;;5016128;28;20056;-81
2021/04/26 00:44:40;;;;;;;3.03;2.40;;;;;;;;;;5016072;28;20033;-82
2021/04/26 00:47:07;;;;;;;2.88;2.28;;;;;;;;;;5033292;28;20028;-81
2021/04/26 00:49:35;;;;;;;2.67;2.35;;;;;;;;;;5034256;28;20040;-80
2021/04/26 00:52:01;;;;;;;4.70;2.50;;;;;;;;;;5015768;28;20036;-81
2021/04/26 00:54:27;;;;;;;2.70;2.20;;;;;;;;;;5061564;28;20021;-81
2021/04/26 00:56:53;;;;;;;3.35;2.38;;;;;;;;;;5054195;28;20087;-80
2021/04/26 00:59:18;;;;;;;4.40;2.95;;;;;;;;;;5053873;28;20043;-82
2021/04/26 01:01:44;;;;;;;3.13;2.60;;;;;;;;;;5054081;28;20380;-81
2021/04/26 01:04:10;;;;;;;4.20;2.67;;;;;;;;;;5035408;28;20021;-82
2021/04/26 01:06:35;;;;;;;2.72;2.28;;;;;;;;;;5053571;28;20020;-80
2021/04/26 01:09:01;;;;;;;3.55;2.63;;;;;;;;;;5052554;28;20017;-80
2021/04/26 01:11:41;;;;;;;4.00;2.60;;;;;;;;;;5045246;28;20061;-81
2021/04/26 01:14:31;;;;;;;4.47;3.00;;;;;;;;;;5053568;28;20100;-81
2021/04/26 01:17:02;;;;;;;4.88;3.28;;;;;;;;;;5053677;28;20028;-82
2021/04/26 01:20:05;;;;;;;7.13;2.92;;;;;;;;;;5035091;28;20037;-80
2021/04/26 01:22:58;;;;;;;4.35;2.92;;;;;;;;;;5053356;28;20070;-82
2021/04/26 01:25:25;;;;;;;5.97;2.70;;;;;;;;;;5052904;28;20024;-82
2021/04/26 01:27:54;;;;;;;3.83;2.42;;;;;;;;;;5056058;28;20021;-78
2021/04/26 01:31:05;;;;;;;3.05;2.60;;;;;;;;;;5022940;28;20036;-81
2021/04/26 01:33:36;;;;;;;4.83;2.53;;;;;;;;;;5015233;28;20090;-80
2021/04/26 01:36:05;;;;;;;4.25;2.95;;;;;;;;;;5035518;28;20021;-82
2021/04/26 01:38:41;;;;;;;6.28;3.15;;;;;;;;;;5053728;28;20381;-80
2021/04/26 01:41:08;;;;;;;3.88;3.22;;;;;;;;;;5053084;28;20112;-81
2021/04/26 01:43:35;;;;;;;3.47;3.13;;;;;;;;;;5052383;28;20025;-81
2021/04/26 01:46:06;;;;;;;4.40;2.90;;;;;;;;;;5037578;28;20489;-80
2021/04/26 01:48:35;;;;;;;2.78;2.58;;;;;;;;;;5015770;28;20029;-82
2021/04/26 01:51:02;;;;;;;3.70;2.85;;;;;;;;;;5032900;28;20021;-81
2021/04/26 01:53:28;;;;;;;5.22;3.20;;;;;;;;;;5033163;28;20021;-81
2021/04/26 01:55:56;;;;;;;4.60;3.17;;;;;;;;;;5033481;28;20009;-82
2021/04/26 01:58:22;;;;;;;4.70;3.03;;;;;;;;;;5040508;28;20025;-81
2021/04/26 02:00:48;;;;;;;3.45;3.15;;;;;;;;;;5053118;28;20029;-80
2021/04/26 02:03:18;;;;;;;3.75;3.20;;;;;;;;;;5053114;28;20052;-81
2021/04/26 02:05:43;;;;;;;6.85;3.45;;;;;;;;;;5053240;28;20392;-79
2021/04/26 02:08:12;;;;;;;6.43;3.50;;;;;;;;;;5053084;28;20033;-82
2021/04/26 02:10:38;;;;;;;3.65;3.20;;;;;;;;;;5053191;28;20033;-80
2021/04/26 02:13:05;;;;;;;3.88;3.40;;;;;;;;;;5052923;28;20433;-80
2021/04/26 02:15:31;;;;;;;4.30;3.17;;;;;;;;;;5052241;28;20048;-81
2021/04/26 02:17:57;;;;;;;3.67;3.38;;;;;;;;;;5052084;28;20060;-82
2021/04/26 02:20:23;;;;;;;3.92;3.15;;;;;;;;;;5052053;28;20133;-82
2021/04/26 02:22:50;;;;;;;3.75;3.33;;;;;;;;;;5052506;28;20422;-80
2021/04/26 02:25:16;;;;;;;4.15;3.60;;;;;;;;;;5052497;28;20496;-80
2021/04/26 02:27:42;;;;;;;5.82;3.17;;;;;;;;;;5056456;28;20032;-79
2021/04/26 02:30:09;;;;;;;4.78;3.45;;;;;;;;;;5056890;28;20295;-80
2021/04/26 02:32:47;;;;;;;4.82;3.75;;;;;;;;;;5036401;28;20111;-79
2021/04/26 02:35:19;;;;;;;6.60;3.28;;;;;;;;;;5036549;28;20029;-79
2021/04/26 02:37:54;;;;;;;4.50;3.40;;;;;;;;;;5048431;28;20094;-79
2021/04/26 02:40:21;;;;;;;4.53;3.05;;;;;;;;;;5057059;28;20029;-79
2021/04/26 02:42:49;;;;;;;4.97;3.60;;;;;;;;;;5056692;28;20055;-79
2021/04/26 02:45:18;;;;;;;4.95;3.28;;;;;;;;;;5038741;28;20059;-79
2021/04/26 02:47:45;;;;;;;4.65;3.53;;;;;;;;;;5056516;28;20033;-79
2021/04/26 02:50:15;;;;;;;3.83;3.50;;;;;;;;;;5052280;28;20089;-80
2021/04/26 02:52:41;;;;;;;5.97;4.20;;;;;;;;;;5076317;28;20029;-79
2021/04/26 02:55:07;;;;;;;4.07;3.78;;;;;;;;;;5076834;28;20380;-79
2021/04/26 02:57:34;;;;;;;4.20;3.60;;;;;;;;;;5058445;28;20105;-80
2021/04/26 03:00:09;;;;;;;7.18;3.90;;;;;;;;;;5077136;28;20391;-81
2021/04/26 03:02:36;;;;;;;4.38;3.55;;;;;;;;;;5072543;28;20033;-80
2021/04/26 03:05:04;;;;;;;5.25;3.72;;;;;;;;;;5050507;28;20025;-82
2021/04/26 03:07:31;;;;;;;4.10;3.55;;;;;;;;;;5051925;28;20024;-81
2021/04/26 03:09:59;;;;;;;7.25;3.95;;;;;;;;;;5053327;28;20511;-79
2021/04/26 03:12:25;;;;;;;6.47;3.60;;;;;;;;;;5038098;28;20029;-81
2021/04/26 03:14:51;;;;;;;4.43;3.92;;;;;;;;;;5057683;28;20072;-80
2021/04/26 03:17:17;;;;;;;4.63;3.90;;;;;;;;;;5059987;28;20029;-79
2021/04/26 03:19:43;;;;;;;4.40;4.00;;;;;;;;;;5048352;28;20114;-79
2021/04/26 03:22:10;;;;;;;6.45;4.05;;;;;;;;;;5042379;28;20021;-79
2021/04/26 03:24:36;;;;;;;4.70;4.05;;;;;;;;;;5058868;28;20082;-80
2021/04/26 03:27:02;;;;;;;5.00;4.30;;;;;;;;;;5059598;28;20073;-80
2021/04/26 03:29:29;;;;;;;6.10;3.95;;;;;;;;;;5059437;28;20044;-79
2021/04/26 03:31:55;;;;;;;5.22;4.15;;;;;;;;;;5058576;28;20017;-79
2021/04/26 03:34:21;;;;;;;5.18;4.00;;;;;;;;;;5059297;28;20414;-79
2021/04/26 03:36:47;;;;;;;4.78;3.85;;;;;;;;;;5041169;28;20021;-78
2021/04/26 03:39:14;;;;;;;4.18;3.78;;;;;;;;;;5058477;28;20439;-80
2021/04/26 03:41:40;;;;;;;7.65;4.13;;;;;;;;;;5058564;28;20055;-81
2021/04/26 03:44:16;;;;;;;4.68;4.20;;;;;;;;;;5059656;28;20473;-80
2021/04/26 03:47:04;;;;;;;4.47;4.07;;;;;;;;;;5059679;28;20048;-79
2021/04/26 03:49:29;;;;;;;4.70;4.28;;;;;;;;;;5059033;28;20025;-80
2021/04/26 03:51:55;;;;;;;4.88;4.03;;;;;;;;;;5060475;28;20024;-80
2021/04/26 03:54:20;;;;;;;5.43;4.32;;;;;;;;;;5059701;28;20021;-80
2021/04/26 03:56:46;;;;;;;5.35;3.78;;;;;;;;;;5060279;28;20024;-79
2021/04/26 03:59:13;;;;;;;5.68;4.70;;;;;;;;;;5060237;28;20036;-80
2021/04/26 04:01:39;;;;;;;5.10;4.38;;;;;;;;;;5059722;28;20107;-81
2021/04/26 04:04:05;;;;;;;4.45;4.07;;;;;;;;;;5059975;28;20057;-79
2021/04/26 04:06:31;;;;;;;5.72;4.43;;;;;;;;;;5041718;28;20028;-80
2021/04/26 04:09:01;;;;;;;6.35;4.20;;;;;;;;;;5059846;28;20105;-79
2021/04/26 04:11:27;;;;;;;5.07;4.68;;;;;;;;;;5042896;28;20393;-80
2021/04/26 04:13:53;;;;;;;5.45;4.68;;;;;;;;;;5060135;28;20025;-80
2021/04/26 04:16:19;;;;;;;6.50;4.90;;;;;;;;;;5059367;28;20087;-80
2021/04/26 04:18:45;;;;;;;7.50;5.13;;;;;;;;;;5059460;28;20040;-80
2021/04/26 04:21:10;;;;;;;6.45;5.47;;;;;;;;;;5059237;28;20055;-80
2021/04/26 04:23:35;;;;;;;5.55;4.80;;;;;;;;;;5057413;28;20052;-80
2021/04/26 04:26:01;;;;;;;6.03;5.00;;;;;;;;;;5054473;28;20469;-80
2021/04/26 04:28:31;;;;;;;5.78;5.18;;;;;;;;;;5054454;28;20465;-80
2021/04/26 04:30:58;;;;;;;5.55;5.07;;;;;;;;;;5036269;28;20021;-80
2021/04/26 04:33:24;;;;;;;7.72;5.30;;;;;;;;;;5054918;28;20033;-80
2021/04/26 04:35:50;;;;;;;5.85;5.25;;;;;;;;;;5046648;28;20213;-80
2021/04/26 04:38:16;;;;;;;5.93;5.38;;;;;;;;;;5019695;28;20483;-79
2021/04/26 04:40:42;;;;;;;6.55;5.93;;;;;;;;;;5051989;28;20029;-80
2021/04/26 04:43:07;;;;;;;8.25;5.57;;;;;;;;;;5038703;28;20029;-80
2021/04/26 04:45:33;;;;;;;5.82;5.22;;;;;;;;;;5045450;28;20473;-79
2021/04/26 04:47:58;;;;;;;5.95;5.45;;;;;;;;;;5047529;28;20551;-81
2021/04/26 04:50:24;;;;;;;6.15;5.47;;;;;;;;;;5033812;28;20052;-78
2021/04/26 04:52:49;;;;;;;8.13;5.75;;;;;;;;;;5048043;28;20207;-80
2021/04/26 04:55:15;;;;;;;6.45;5.80;;;;;;;;;;5044127;28;20389;-79
2021/04/26 04:57:41;;;;;;;7.40;6.20;;;;;;;;;;5043157;28;20032;-78
2021/04/26 05:00:07;;;;;;;8.45;6.32;;;;;;;;;;5048483;28;20031;-80
2021/04/26 05:02:32;;;;;;;6.28;5.50;;;;;;;;;;5048536;28;20049;-79
2021/04/26 05:04:58;;;;;;;6.32;5.50;;;;;;;;;;5043845;28;20064;-80
2021/04/26 05:07:23;;;;;;;6.15;5.55;;;;;;;;;;5048356;28;20020;-78
2021/04/26 05:09:52;;;;;;;11.02;6.80;;;;;;;;;;5043044;28;20036;-79
2021/04/26 05:12:17;;;;;;;6.43;5.80;;;;;;;;;;5045936;28;20028;-76
2021/04/26 05:14:45;;;;;;;8.27;5.30;;;;;;;;;;5043649;28;20029;-79
2021/04/26 05:17:10;;;;;;;8.43;5.90;;;;;;;;;;5023311;28;20402;-79
2021/04/26 05:19:37;;;;;;;7.07;5.47;;;;;;;;;;5041008;28;20057;-80
2021/04/26 05:22:02;;;;;;;10.27;8.15;;;;;;;;;;5025492;28;20025;-79
2021/04/26 05:24:28;;;;;;;8.32;6.78;;;;;;;;;;5044134;28;20354;-81
2021/04/26 05:26:53;;;;;;;7.65;6.28;;;;;;;;;;5050063;28;20142;-79
2021/04/26 05:29:19;;;;;;;6.47;5.88;;;;;;;;;;5040652;28;20507;-80
2021/04/26 05:31:44;;;;;;;7.05;6.35;;;;;;;;;;5033873;28;20025;-79
2021/04/26 05:34:10;;;;;;;11.63;6.43;;;;;;;;;;5015735;28;20083;-80
2021/04/26 05:36:35;;;;;;;7.78;6.50;;;;;;;;;;5037118;28;20440;-79
2021/04/26 05:39:00;;;;;;;7.78;6.70;;;;;;;;;;5035834;28;20033;-81
2021/04/26 05:41:26;;;;;;;7.22;6.53;;;;;;;;;;5026280;28;20033;-80
2021/04/26 05:43:52;;;;;;;9.00;7.10;;;;;;;;;;5056963;28;20039;-79
2021/04/26 05:46:17;;;;;;;7.63;6.35;;;;;;;;;;5058170;28;20032;-80
2021/04/26 05:48:43;;;;;;;7.18;6.25;;;;;;;;;;5056744;28;20033;-79
2021/04/26 05:51:09;;;;;;;10.07;7.07;;;;;;;;;;5054187;28;20389;-78
2021/04/26 05:53:34;;;;;;;8.43;6.18;;;;;;;;;;5055609;28;20044;-78
2021/04/26 05:56:00;;;;;;;9.00;6.30;;;;;;;;;;5054137;28;20542;-79
2021/04/26 05:58:26;;;;;;;8.43;6.78;;;;;;;;;;5038385;28;20032;-81
2021/04/26 06:00:52;;;;;;;8.77;6.57;;;;;;;;;;5039864;28;20075;-79
2021/04/26 06:03:17;;;;;;;7.93;6.43;;;;;;;;;;5057494;28;20033;-79
2021/04/26 06:05:42;;;;;;;8.23;6.75;;;;;;;;;;5057807;28;20033;-81
2021/04/26 06:08:08;;;;;;;8.63;6.90;;;;;;;;;;5035579;28;20024;-79
2021/04/26 06:10:33;;;;;;;8.48;7.18;;;;;;;;;;5054642;28;20165;-81
2021/04/26 06:12:59;;;;;;;10.48;7.15;;;;;;;;;;5046266;28;20029;-80
2021/04/26 06:15:25;;;;;;;12.05;7.38;;;;;;;;;;5033723;28;20056;-79
2021/04/26 06:17:51;;;;;;;10.45;7.30;;;;;;;;;;5034710;28;20029;-82
2021/04/26 06:20:16;;;;;;;8.38;7.15;;;;;;;;;;5033427;28;20064;-82
2021/04/26 06:22:42;;;;;;;9.90;7.35;;;;;;;;;;5034443;28;20456;-79
2021/04/26 06:25:08;;;;;;;10.88;8.07;;;;;;;;;;5032925;28;20030;-81
2021/04/26 06:27:33;;;;;;;11.25;8.10;;;;;;;;;;5015991;28;20033;-79
2021/04/26 06:29:59;;;;;;;13.45;8.63;;;;;;;;;;5042539;28;20377;-82
2021/04/26 06:32:24;;;;;;;10.05;7.63;;;;;;;;;;5039531;28;20508;-79
2021/04/26 06:34:51;;;;;;;9.20;7.10;;;;;;;;;;5028502;28;20025;-80
2021/04/26 06:37:16;;;;;;;9.23;7.75;;;;;;;;;;5018466;28;20028;-81
2021/04/26 06:39:42;;;;;;;11.68;7.75;;;;;;;;;;5047966;28;20033;-82
2021/04/26 06:42:07;;;;;;;13.07;7.72;;;;;;;;;;5053113;28;20041;-81
2021/04/26 06:44:33;;;;;;;8.82;7.10;;;;;;;;;;5049606;28;20049;-81
2021/04/26 06:46:58;;;;;;;10.73;8.00;;;;;;;;;;5045277;28;20037;-81
2021/04/26 06:49:25;;;;;;;8.50;7.15;;;;;;;;;;5034627;28;20017;-80
2021/04/26 06:51:50;;;;;;;13.60;7.13;;;;;;;;;;5041989;28;20382;-80
2021/04/26 06:54:16;;;;;;;11.15;7.07;;;;;;;;;;5036536;28;20116;-81
2021/04/26 06:56:42;;;;;;;8.88;7.22;;;;;;;;;;5053634;28;20033;-81
2021/04/26 06:59:07;;;;;;;10.27;7.55;;;;;;;;;;5057670;28;20025;-81
2021/04/26 07:01:33;;;;;;;12.57;7.53;;;;;;;;;;5056875;28;20035;-81
2021/04/26 07:03:58;;;;;;;11.02;7.75;;;;;;;;;;5056026;28;20576;-81
2021/04/26 07:06:24;;;;;;;10.90;7.40;;;;;;;;;;5057293;28;20057;-81
2021/04/26 07:08:49;;;;;;;12.50;8.15;;;;;;;;;;5056630;28;20040;-80
2021/04/26 07:11:15;;;;;;;10.52;7.95;;;;;;;;;;5057119;28;20029;-82
2021/04/26 07:13:40;;;;;;;10.88;7.53;;;;;;;;;;5057213;28;20025;-81
2021/04/26 07:16:05;;;;;;;11.43;7.80;;;;;;;;;;5056984;28;20564;-80
2021/04/26 07:18:31;;;;;;;12.95;8.07;;;;;;;;;;5056209;28;20060;-80
2021/04/26 07:20:56;;;;;;;10.88;7.82;;;;;;;;;;5060443;28;20492;-80
2021/04/26 07:23:22;;;;;;;7.68;6.72;;;;;;;;;;5033034;28;21003;-81
2021/04/26 07:25:47;;;;;;;12.75;7.70;;;;;;;;;;5021712;28;20029;-80
2021/04/26 07:28:13;;;;;;;10.60;7.60;;;;;;;;;;5018862;28;20033;-80
2021/04/26 07:30:39;;;;;;;12.55;7.65;;;;;;;;;;5049552;28;20033;-81
2021/04/26 07:33:05;;;;;;;8.57;7.57;;;;;;;;;;5056241;28;20032;-80
2021/04/26 07:35:30;;;;;;;11.63;7.30;;;;;;;;;;5042325;28;20108;-79
2021/04/26 07:37:56;;;;;;;9.55;6.80;;;;;;;;;;5050583;28;20115;-81
2021/04/26 07:40:21;;;;;;;9.93;7.03;;;;;;;;;;5027891;28;20027;-80
2021/04/26 07:42:47;;;;;;;10.30;6.50;;;;;;;;;;5036311;28;20036;-80
2021/04/26 07:45:19;;;;;;;12.35;6.78;;;;;;;;;;5050975;28;20441;-81
2021/04/26 07:47:44;;;;;;;8.40;6.38;;;;;;;;;;5050695;28;20025;-81
2021/04/26 07:50:10;;;;;;;11.25;6.43;;;;;;;;;;5055913;28;20032;-83
2021/04/26 07:52:36;;;;;;;11.68;6.80;;;;;;;;;;5054213;28;20040;-82
2021/04/26 07:55:02;;;;;;;7.68;6.15;;;;;;;;;;5036257;28;20535;-82
2021/04/26 07:57:27;;;;;;;7.43;5.90;;;;;;;;;;5040227;28;20105;-79
2021/04/26 07:59:53;;;;;;;7.03;5.85;;;;;;;;;;5054645;28;20544;-80
2021/04/26 08:02:18;;;;;;;10.90;6.30;;;;;;;;;;5045468;28;20033;-81
2021/04/26 08:04:44;;;;;;;7.38;5.57;;;;;;;;;;5054647;28;20029;-82
2021/04/26 08:07:09;;;;;;;7.90;5.75;;;;;;;;;;5056015;28;20488;-81
2021/04/26 08:09:35;;;;;;;6.72;5.32;;;;;;;;;;5051446;28;20037;-79
2021/04/26 08:12:00;;;;;;;6.60;5.43;;;;;;;;;;5055902;28;20035;-82
2021/04/26 08:14:26;;;;;;;7.95;5.32;;;;;;;;;;5055822;28;20469;-80
2021/04/26 08:16:52;;;;;;;7.75;5.20;;;;;;;;;;5038320;28;20083;-81
2021/04/26 08:19:17;;;;;;;9.38;5.72;;;;;;;;;;5023414;28;20057;-79
2021/04/26 08:21:43;;;;;;;8.77;5.20;;;;;;;;;;5031077;28;20037;-79
2021/04/26 08:24:08;;;;;;;7.95;5.40;;;;;;;;;;5022458;28;20022;-79
2021/04/26 08:26:34;;;;;;;8.15;5.55;;;;;;;;;;5031399;28;20033;-81
2021/04/26 08:28:59;;;;;;;6.13;5.28;;;;;;;;;;5017560;28;20029;-82
2021/04/26 08:31:25;;;;;;;9.13;6.00;;;;;;;;;;5032576;28;20036;-79
2021/04/26 08:33:50;;;;;;;7.72;5.50;;;;;;;;;;5037873;28;20116;-81
2021/04/26 08:36:16;;;;;;;6.95;4.88;;;;;;;;;;5036472;28;20508;-79
2021/04/26 08:38:41;;;;;;;9.43;5.32;;;;;;;;;;5038451;28;20112;-79
2021/04/26 08:41:13;;;;;;;7.60;5.60;;;;;;;;;;5037744;28;20493;-80
2021/04/26 08:43:42;;;;;;;9.38;5.53;;;;;;;;;;5018372;28;20029;-79
2021/04/26 08:46:08;;;;;;;7.28;5.50;;;;;;;;;;5032011;28;20032;-78
2021/04/26 08:48:33;;;;;;;9.40;5.07;;;;;;;;;;5030934;28;20037;-81
2021/04/26 08:51:00;;;;;;;8.50;5.55;;;;;;;;;;5033594;28;20362;-79
2021/04/26 08:53:26;;;;;;;7.10;5.25;;;;;;;;;;5022612;28;20089;-79
2021/04/26 08:55:52;;;;;;;8.25;5.15;;;;;;;;;;5029306;28;20057;-79
2021/04/26 08:58:17;;;;;;;6.88;5.72;;;;;;;;;;5024327;28;20065;-78
2021/04/26 09:00:43;;;;;;;8.23;5.50;;;;;;;;;;5042675;28;20543;-79
2021/04/26 09:03:08;;;;;;;8.70;5.40;;;;;;;;;;5034493;28;20029;-80
2021/04/26 09:05:39;;;;;;;11.75;5.72;;;;;;;;;;5043165;28;20044;-80
2021/04/26 09:08:09;;;;;;;8.23;5.38;;;;;;;;;;5043244;28;20370;-80
2021/04/26 09:10:45;;;;;;;10.85;5.57;;;;;;;;;;5029946;28;20022;-80
2021/04/26 09:13:21;;;;;;;8.63;4.70;;;;;;;;;;5025018;28;20033;-79
2021/04/26 09:16:21;;;;;;;8.68;5.10;;;;;;;;;;5037310;28;20405;-81
2021/04/26 09:18:56;;;;;;;5.93;4.90;;;;;;;;;;5015212;28;20049;-80
2021/04/26 09:21:36;;;;;;;7.45;4.93;;;;;;;;;;5037246;28;20029;-81
2021/04/26 09:24:24;;;;;;;12.60;6.70;;;;;;;;;;5025336;28;20029;-81
2021/04/26 09:26:51;;;;;;;11.50;5.25;;;;;;;;;;5043317;28;20022;-81
2021/04/26 09:29:19;;;;;;;6.47;5.40;;;;;;;;;;5025317;28;20032;-80
2021/04/26 09:32:18;;;;;;;11.98;8.73;;;;;;;;;;5029409;28;20036;-80
2021/04/26 09:34:52;;;;;;;7.68;5.47;;;;;;;;;;4965762;29;20043;-80
2021/04/26 09:37:23;;;;;;;8.73;5.35;;;;;;;;;;4957834;29;20039;-80
2021/04/26 09:40:04;;;;;;;11.25;6.22;;;;;;;;;;4958011;28;20022;-80
2021/04/26 09:42:46;;;;;;;9.32;5.30;;;;;;;;;;4942401;29;20543;-80
2021/04/26 09:45:29;;;;;;;7.68;4.88;;;;;;;;;;4951600;29;20095;-81
2021/04/26 09:48:10;;;;;;;8.27;4.85;;;;;;;;;;4958348;29;20043;-80
2021/04/26 09:50:56;;;;;;;5.60;4.77;;;;;;;;;;4961508;29;20046;-80
2021/04/26 09:53:23;;;;;;;7.20;4.80;;;;;;;;;;4961787;29;20030;-80
2021/04/26 09:55:52;;;;;;;7.95;4.60;;;;;;;;;;4960848;29;20042;-80
2021/04/26 09:58:18;;;;;;;6.35;4.97;;;;;;;;;;4950553;28;20039;-81
2021/04/26 10:00:46;;;;;;;7.80;4.25;;;;;;;;;;4957513;29;20042;-81
2021/04/26 10:03:13;;;;;;;8.35;4.70;;;;;;;;;;4939030;29;20035;-80
2021/04/26 10:05:41;;;;;;;7.35;4.90;;;;;;;;;;4943244;29;20115;-80
2021/04/26 10:08:10;;;;;;;7.03;4.90;;;;;;;;;;4942108;29;20059;-81
2021/04/26 10:10:35;;;;;;;6.75;4.65;;;;;;;;;;4997677;28;20049;-80
2021/04/26 10:13:00;;;;;;;8.38;4.80;;;;;;;;;;5040067;28;20037;-80
2021/04/26 10:15:27;;;;;;;7.80;4.55;;;;;;;;;;5031950;28;20393;-80
2021/04/26 10:17:55;;;;;;;6.90;4.40;;;;;;;;;;5024484;28;20072;-80
2021/04/26 10:20:39;;;;;;;6.32;4.43;;;;;;;;;;5018997;28;20041;-81
2021/04/26 10:23:25;;;;;;;8.65;5.00;;;;;;;;;;5022453;28;20040;-80
2021/04/26 10:25:51;;;;;;;8.02;5.05;;;;;;;;;;5024838;28;20030;-79
2021/04/26 10:28:37;;;;;;;6.63;4.25;;;;;;;;;;5038676;28;20446;-79
2021/04/26 10:31:05;;;;;;;7.47;4.75;;;;;;;;;;5027375;28;20057;-81
2021/04/26 10:33:56;;;;;;;8.27;4.60;;;;;;;;;;5039061;28;20370;-81
2021/04/26 10:36:44;;;;;;;7.53;5.15;;;;;;;;;;5027995;28;20030;-81
2021/04/26 10:39:17;;;;;;;5.43;4.38;;;;;;;;;;5029625;28;20045;-80
2021/04/26 10:41:46;;;;;;;12.85;5.03;;;;;;;;;;5039227;28;20022;-82
2021/04/26 10:44:12;;;;;;;7.95;4.60;;;;;;;;;;5036225;28;20025;-81
2021/04/26 10:46:38;;;;;;;7.53;4.35;;;;;;;;;;5040063;28;20029;-81
2021/04/26 10:49:07;;;;;;;7.72;4.30;;;;;;;;;;5035271;28;20440;-81
2021/04/26 10:51:37;;;;;;;7.25;3.95;;;;;;;;;;5014435;28;20021;-81
2021/04/26 10:54:07;;;;;;;5.75;4.10;;;;;;;;;;5034605;28;20029;-81
2021/04/26 10:56:37;;;;;;;7.57;4.40;;;;;;;;;;5028229;28;20030;-80
2021/04/26 10:59:17;;;;;;;8.52;4.13;;;;;;;;;;5025071;28;20283;-81
2021/04/26 11:01:51;;;;;;;4.53;4.10;;;;;;;;;;5040554;28;20041;-82
2021/04/26 11:04:17;;;;;;;7.00;3.70;;;;;;;;;;5044612;28;20047;-80
2021/04/26 11:07:15;;;;;;;4.45;3.38;;;;;;;;;;5041076;28;20037;-81
2021/04/26 11:09:41;;;;;;;10.55;3.60;;;;;;;;;;5036424;28;20094;-80
2021/04/26 11:12:30;;;;;;;6.15;3.70;;;;;;;;;;5043366;28;20056;-81
2021/04/26 11:15:13;;;;;;;6.47;3.17;;;;;;;;;;5040157;28;20048;-81
2021/04/26 11:17:38;;;;;;;5.03;3.35;;;;;;;;;;5041536;28;20017;-80
2021/04/26 11:20:13;;;;;;;4.70;3.80;;;;;;;;;;5061002;28;20052;-81
2021/04/26 11:22:39;;;;;;;5.80;3.80;;;;;;;;;;5061735;28;20025;-80
2021/04/26 11:25:06;;;;;;;5.85;3.30;;;;;;;;;;5059903;28;20028;-80
2021/04/26 11:27:32;;;;;;;6.95;3.65;;;;;;;;;;5057836;28;20021;-80
2021/04/26 11:29:58;;;;;;;6.63;3.63;;;;;;;;;;5059673;28;20040;-81
2021/04/26 11:32:25;;;;;;;8.75;3.67;;;;;;;;;;5043833;28;20025;-80
2021/04/26 11:34:50;;;;;;;6.22;3.53;;;;;;;;;;5025969;28;20148;-81
2021/04/26 11:37:20;;;;;;;5.72;3.55;;;;;;;;;;5033595;28;20067;-80
2021/04/26 11:39:47;;;;;;;6.43;3.78;;;;;;;;;;5059280;28;20028;-81
2021/04/26 11:42:26;;;;;;;5.82;3.97;;;;;;;;;;5058564;28;20041;-80
2021/04/26 11:44:53;;;;;;;5.68;4.05;;;;;;;;;;5063317;28;20024;-81
2021/04/26 11:47:21;;;;;;;7.20;3.92;;;;;;;;;;5059297;28;20032;-81
2021/04/26 11:49:47;;;;;;;7.55;3.72;;;;;;;;;;5049820;28;20116;-80
2021/04/26 11:52:16;;;;;;;7.32;3.95;;;;;;;;;;5047809;28;20086;-80
2021/04/26 11:54:43;;;;;;;6.65;3.95;;;;;;;;;;5037771;28;20040;-81
2021/04/26 11:57:16;;;;;;;7.45;4.20;;;;;;;;;;5038422;28;20021;-81
2021/04/26 11:59:47;;;;;;;7.93;4.18;;;;;;;;;;5039578;28;20033;-80
2021/04/26 12:02:13;;;;;;;7.13;4.38;;;;;;;;;;5053296;28;20853;-80
2021/04/26 12:04:41;;;;;;;6.43;4.40;;;;;;;;;;5054999;28;20063;-80
2021/04/26 12:07:08;;;;;;;7.72;4.72;;;;;;;;;;5055301;28;20062;-80
2021/04/26 12:09:34;;;;;;;6.85;4.75;;;;;;;;;;5054458;28;20523;-79
2021/04/26 12:12:01;;;;;;;8.45;4.30;;;;;;;;;;5055560;28;20020;-80
2021/04/26 12:14:27;;;;;;;8.35;4.38;;;;;;;;;;5035953;28;20052;-80
2021/04/26 12:16:52;;;;;;;7.80;3.90;;;;;;;;;;5055418;28;20059;-80
2021/04/26 12:19:33;;;;;;;6.38;4.25;;;;;;;;;;5055633;28;20459;-80
2021/04/26 12:21:59;;;;;;;6.82;4.40;;;;;;;;;;5054378;28;20532;-81
2021/04/26 12:24:25;;;;;;;6.28;4.53;;;;;;;;;;5024092;28;20017;-81
2021/04/26 12:26:50;;;;;;;5.88;4.40;;;;;;;;;;5045209;28;20032;-81
2021/04/26 12:29:34;;;;;;;9.18;4.30;;;;;;;;;;5038237;28;20017;-81
2021/04/26 12:32:22;;;;;;;6.60;4.07;;;;;;;;;;5050806;28;20044;-80
2021/04/26 12:34:51;;;;;;;5.97;3.95;;;;;;;;;;5044510;28;20104;-80
2021/04/26 12:37:19;;;;;;;6.97;3.67;;;;;;;;;;5047988;28;20508;-80
2021/04/26 12:39:45;;;;;;;7.45;4.18;;;;;;;;;;5044967;28;20028;-80
2021/04/26 12:42:17;;;;;;;6.70;3.80;;;;;;;;;;5033886;28;20037;-79
2021/04/26 12:44:44;;;;;;;6.88;3.70;;;;;;;;;;5028449;28;20511;-79
2021/04/26 12:47:26;;;;;;;8.40;3.65;;;;;;;;;;5042572;28;20029;-81
2021/04/26 12:50:39;;;;;;;6.00;3.78;;;;;;;;;;5044417;28;20685;-79
2021/04/26 12:53:17;;;;;;;5.28;3.60;;;;;;;;;;5017563;28;20029;-81
2021/04/26 12:55:44;;;;;;;9.98;3.80;;;;;;;;;;5022550;28;20037;-80
2021/04/26 12:58:13;;;;;;;8.98;4.47;;;;;;;;;;5033936;28;20025;-81
2021/04/26 13:00:44;;;;;;;11.13;4.60;;;;;;;;;;5023980;28;20033;-80
2021/04/26 13:03:32;;;;;;;10.23;4.35;;;;;;;;;;5038848;28;20091;-81
2021/04/26 13:06:09;;;;;;;9.77;4.20;;;;;;;;;;5050655;28;20045;-81
2021/04/26 13:08:38;;;;;;;16.75;4.72;;;;;;;;;;5047572;28;20032;-81
2021/04/26 13:11:06;;;;;;;6.63;3.75;;;;;;;;;;5049429;28;20566;-81
2021/04/26 13:13:33;;;;;;;4.78;3.58;;;;;;;;;;5042067;28;20032;-79
2021/04/26 13:16:19;;;;;;;6.63;3.45;;;;;;;;;;5032430;28;20116;-81
2021/04/26 13:18:50;;;;;;;5.53;3.80;;;;;;;;;;5032994;28;20049;-81
2021/04/26 13:21:16;;;;;;;;;;;;;;;;;;5047878;28;20032;-80
2021/04/26 13:23:42;;;;;;;6.60;3.75;;;;;;;;;;5052533;28;19908;-80
2021/04/26 13:26:26;;;;;;;8.35;3.60;;;;;;;;;;5041647;28;20021;-81
2021/04/26 13:28:53;;;;;;;7.97;3.67;;;;;;;;;;5052522;28;20508;-81
2021/04/26 13:31:20;;;;;;;7.43;3.70;;;;;;;;;;5039185;28;20104;-81
2021/04/26 13:33:45;;;;;;;5.22;3.83;;;;;;;;;;5018400;28;20039;-81
2021/04/26 13:36:11;;;;;;;7.90;4.20;;;;;;;;;;5047618;28;20028;-80
2021/04/26 13:38:36;;;;;;;7.82;4.03;;;;;;;;;;5052830;28;20036;-79
2021/04/26 13:41:02;;;;;;;13.45;4.60;;;;;;;;;;5035055;28;20061;-81
2021/04/26 13:43:28;;;;;;;7.78;4.43;;;;;;;;;;5053459;28;20028;-80
2021/04/26 13:45:53;;;;;;;5.57;3.65;;;;;;;;;;5053016;28;20075;-81
2021/04/26 13:48:19;;;;;;;4.90;3.60;;;;;;;;;;5053514;28;20028;-80
2021/04/26 13:50:45;;;;;;;6.07;3.92;;;;;;;;;;5052023;28;20025;-79
2021/04/26 13:53:11;;;;;;;8.23;4.15;;;;;;;;;;5052140;28;20480;-80
2021/04/26 13:55:37;;;;;;;7.03;3.92;;;;;;;;;;5052900;28;20025;-80
2021/04/26 13:58:03;;;;;;;8.30;4.07;;;;;;;;;;5052857;28;20143;-81
2021/04/26 14:00:30;;;;;;;7.22;4.18;;;;;;;;;;5041771;28;20048;-80
2021/04/26 14:03:00;;;;;;;4.80;3.47;;;;;;;;;;5043727;28;20025;-81
2021/04/26 14:05:26;;;;;;;9.07;4.22;;;;;;;;;;5046958;28;20017;-79
2021/04/26 14:07:51;;;;;;;9.45;4.10;;;;;;;;;;5043607;28;20171;-79
2021/04/26 14:10:18;;;;;;;6.07;4.50;;;;;;;;;;5034258;28;20021;-79
2021/04/26 14:12:43;;;;;;;10.70;4.50;;;;;;;;;;5045439;28;20107;-80
2021/04/26 14:15:10;;;;;;;10.15;4.47;;;;;;;;;;5052117;28;20502;-80
2021/04/26 14:17:36;;;;;;;7.18;4.57;;;;;;;;;;5052863;28;20374;-79
2021/04/26 14:20:03;;;;;;;5.85;4.15;;;;;;;;;;5016391;28;20053;-81
2021/04/26 14:22:28;;;;;;;7.30;4.70;;;;;;;;;;5015494;28;20440;-80
2021/04/26 14:24:54;;;;;;;6.80;4.22;;;;;;;;;;5014588;28;20022;-81
2021/04/26 14:27:20;;;;;;;5.82;4.10;;;;;;;;;;5037481;28;20017;-79
2021/04/26 14:29:46;;;;;;;6.18;4.47;;;;;;;;;;5036847;28;20048;-79
2021/04/26 14:32:11;;;;;;;9.60;5.13;;;;;;;;;;5032940;28;20024;-80
2021/04/26 14:34:37;;;;;;;9.07;5.40;;;;;;;;;;5033081;28;20096;-80
2021/04/26 14:37:02;;;;;;;9.52;5.78;;;;;;;;;;5020968;28;20103;-80
2021/04/26 14:39:28;;;;;;;9.18;5.88;;;;;;;;;;5050317;28;20572;-80
2021/04/26 14:41:57;;;;;;;6.80;5.40;;;;;;;;;;5048100;28;20029;-81
2021/04/26 14:44:23;;;;;;;9.25;5.50;;;;;;;;;;5045702;28;20106;-80
2021/04/26 14:46:52;;;;;;;7.15;5.25;;;;;;;;;;5023757;28;20060;-81
2021/04/26 14:49:18;;;;;;;8.98;5.65;;;;;;;;;;5045275;28;20512;-80